Time;durP1;ratioP1;P1;durP2;ratioP2;P2;SDS_P1;SDS_P2;PMS_P1;PMS_P2;Temp;Humidity;BMP_temperature;BMP_pressure;BME280_temperature;BME280_humidity;BME280_pressure;Samples;Min_cycle;Max_cycle;Signal;HPM_P1;HPM_P2
2022/04/20 00:01:46;;;;;;;7.05;4.82;;;11.60;79.80;;;;;;5091045;28;20065;-39
2022/04/20 00:04:12;;;;;;;11.18;5.82;;;11.60;79.90;;;;;;5107234;28;20098;-43
2022/04/20 00:06:38;;;;;;;5.63;4.68;;;11.60;79.90;;;;;;5094711;28;20508;-41
2022/04/20 00:09:03;;;;;;;7.78;4.00;;;11.50;79.90;;;;;;5108788;28;20523;-41
2022/04/20 00:11:29;;;;;;;5.97;4.70;;;11.50;79.90;;;;;;5097706;28;20024;-42
2022/04/20 00:13:54;;;;;;;5.95;4.63;;;11.50;79.90;;;;;;5105394;28;20479;-41
2022/04/20 00:16:20;;;;;;;6.75;4.40;;;11.40;79.80;;;;;;5100418;28;20026;-41
2022/04/20 00:18:48;;;;;;;6.25;3.97;;;11.40;79.90;;;;;;5100866;28;20367;-42
2022/04/20 00:21:14;;;;;;;5.80;4.15;;;11.40;79.90;;;;;;5092220;28;20127;-41
2022/04/20 00:23:39;;;;;;;4.45;3.75;;;11.40;79.90;;;;;;5094872;28;20439;-40
2022/04/20 00:26:08;;;;;;;5.53;4.18;;;11.30;79.80;;;;;;5090509;28;20031;-41
2022/04/20 00:28:33;;;;;;;4.80;4.18;;;11.30;79.90;;;;;;5096742;28;20143;-40
2022/04/20 00:30:59;;;;;;;5.25;4.38;;;11.30;79.90;;;;;;5088865;28;20150;-41
2022/04/20 00:33:24;;;;;;;5.25;4.35;;;11.30;79.90;;;;;;5098652;28;20743;-42
2022/04/20 00:35:50;;;;;;;5.40;4.20;;;11.20;79.90;;;;;;5088275;28;20115;-40
2022/04/20 00:38:17;;;;;;;5.28;4.00;;;11.20;79.90;;;;;;5094869;28;20471;-40
2022/04/20 00:40:47;;;;;;;5.57;4.20;;;11.20;79.90;;;;;;5087332;28;20062;-40
2022/04/20 00:43:13;;;;;;;5.93;4.18;;;11.10;79.90;;;;;;5093608;28;20015;-38
2022/04/20 00:45:42;;;;;;;4.68;3.53;;;11.10;79.90;;;;;;5108005;28;20024;-42
2022/04/20 00:48:13;;;;;;;5.15;4.20;;;11.10;79.90;;;;;;5094316;28;20443;-40
2022/04/20 00:50:41;;;;;;;5.53;3.95;;;11.00;79.90;;;;;;5106741;28;20455;-41
2022/04/20 00:53:07;;;;;;;6.28;4.03;;;11.00;79.80;;;;;;5095026;28;20075;-40
2022/04/20 00:55:32;;;;;;;5.10;3.55;;;11.00;79.80;;;;;;5105604;28;20024;-40
2022/04/20 00:57:58;;;;;;;5.07;3.33;;;11.00;79.80;;;;;;5098123;28;20116;-42
2022/04/20 01:00:25;;;;;;;4.82;3.33;;;11.00;79.70;;;;;;5107980;28;20043;-42
2022/04/20 01:02:54;;;;;;;4.20;3.10;;;10.90;79.80;;;;;;5106220;28;20077;-42
2022/04/20 01:05:21;;;;;;;4.05;3.25;;;10.90;79.60;;;;;;5108986;28;20057;-39
2022/04/20 01:07:47;;;;;;;4.72;2.80;;;10.90;79.60;;;;;;5107882;28;20018;-40
2022/04/20 01:10:12;;;;;;;3.45;2.90;;;10.80;79.60;;;;;;5099769;28;20031;-40
2022/04/20 01:12:40;;;;;;;5.00;3.03;;;10.80;79.60;;;;;;5104751;28;20023;-40
2022/04/20 01:15:06;;;;;;;4.18;3.72;;;10.80;79.60;;;;;;5096508;28;20066;-40
2022/04/20 01:17:32;;;;;;;4.30;3.22;;;10.80;79.50;;;;;;5104766;28;20056;-41
2022/04/20 01:19:57;;;;;;;4.93;3.60;;;10.80;79.50;;;;;;5088749;28;20436;-41
2022/04/20 01:22:23;;;;;;;3.35;2.90;;;10.70;79.40;;;;;;5087630;28;20024;-42
2022/04/20 01:24:48;;;;;;;3.47;3.05;;;10.70;79.30;;;;;;5097235;28;20435;-40
2022/04/20 01:27:14;;;;;;;4.13;3.13;;;10.70;79.20;;;;;;5086360;28;20036;-43
2022/04/20 01:29:41;;;;;;;3.40;2.88;;;10.70;79.20;;;;;;5098456;28;20088;-41
2022/04/20 01:32:07;;;;;;;3.90;3.10;;;10.60;79.10;;;;;;5086280;28;20119;-41
2022/04/20 01:34:33;;;;;;;3.22;2.90;;;10.60;79.00;;;;;;5098494;28;20035;-41
2022/04/20 01:36:58;;;;;;;4.13;2.47;;;10.70;78.90;;;;;;5066086;28;20032;-42
2022/04/20 01:39:24;;;;;;;4.03;2.90;;;10.60;78.70;;;;;;5089296;28;20078;-41
2022/04/20 01:41:49;;;;;;;3.95;2.95;;;10.60;78.60;;;;;;5088853;28;20910;-42
2022/04/20 01:44:15;;;;;;;4.05;2.78;;;10.60;78.50;;;;;;5093521;28;20462;-42
2022/04/20 01:46:40;;;;;;;3.10;2.55;;;10.60;78.50;;;;;;5090445;28;20024;-42
2022/04/20 01:49:06;;;;;;;2.88;2.58;;;10.60;78.50;;;;;;5090140;28;20023;-42
2022/04/20 01:51:47;;;;;;;4.97;2.78;;;10.50;78.30;;;;;;5093615;28;20056;-41
2022/04/20 01:54:13;;;;;;;4.65;2.80;;;10.50;78.30;;;;;;5089684;28;20103;-41
2022/04/20 01:56:39;;;;;;;3.30;2.58;;;10.50;78.30;;;;;;5093871;28;20084;-41
2022/04/20 01:59:05;;;;;;;4.78;3.00;;;10.50;78.20;;;;;;5087223;28;20066;-40
2022/04/20 02:04:14;;;;;;;2.38;2.13;;;10.50;78.10;;;;;;5087072;28;20089;-41
2022/04/20 02:06:40;;;;;;;5.65;3.33;;;10.40;77.90;;;;;;5096362;28;20023;-39
2022/04/20 02:09:05;;;;;;;5.10;3.50;;;10.40;77.90;;;;;;5086580;28;20140;-40
2022/04/20 02:11:31;;;;;;;5.40;3.45;;;10.40;77.80;;;;;;5096393;28;20042;-40
2022/04/20 02:13:58;;;;;;;3.83;3.42;;;10.40;77.70;;;;;;5085226;28;20036;-41
2022/04/20 02:16:24;;;;;;;4.32;2.85;;;10.40;77.60;;;;;;5097565;28;20103;-39
2022/04/20 02:18:49;;;;;;;4.93;3.70;;;10.40;77.50;;;;;;5086350;28;20055;-40
2022/04/20 02:21:15;;;;;;;4.10;3.15;;;10.40;77.40;;;;;;5096774;28;20384;-42
2022/04/20 02:23:40;;;;;;;5.60;3.45;;;10.40;77.20;;;;;;5085828;28;20020;-40
2022/04/20 02:26:06;;;;;;;2.72;2.50;;;10.40;77.00;;;;;;5095992;28;20024;-42
2022/04/20 02:28:31;;;;;;;4.32;3.00;;;10.40;76.80;;;;;;5085262;28;20380;-44
2022/04/20 02:30:57;;;;;;;5.28;2.75;;;10.40;76.70;;;;;;5093935;28;20019;-42
2022/04/20 02:33:25;;;;;;;3.63;3.08;;;10.40;76.50;;;;;;5088894;28;20703;-41
2022/04/20 02:35:51;;;;;;;4.05;3.00;;;10.40;76.20;;;;;;5090666;28;20039;-40
2022/04/20 02:38:17;;;;;;;3.55;2.70;;;10.40;75.90;;;;;;5090950;28;20115;-39
2022/04/20 02:40:43;;;;;;;3.53;2.30;;;10.40;75.80;;;;;;5088164;28;20032;-40
2022/04/20 02:43:09;;;;;;;3.33;2.75;;;10.40;75.60;;;;;;5093251;28;20395;-43
2022/04/20 02:45:36;;;;;;;5.13;3.10;;;10.40;75.40;;;;;;5085423;28;20020;-41
2022/04/20 02:48:02;;;;;;;6.78;2.72;;;10.40;75.20;;;;;;5095389;28;20028;-44
2022/04/20 02:50:28;;;;;;;4.68;2.70;;;10.50;75.10;;;;;;5085246;28;20131;-41
2022/04/20 02:52:54;;;;;;;2.95;2.30;;;10.40;75.00;;;;;;5096166;28;20057;-40
2022/04/20 02:55:20;;;;;;;3.33;2.35;;;10.50;74.90;;;;;;5083868;28;20128;-39
2022/04/20 02:57:45;;;;;;;4.00;2.78;;;10.50;74.80;;;;;;5096954;28;20130;-38
2022/04/20 03:00:12;;;;;;;3.17;2.70;;;10.50;74.70;;;;;;5084594;28;20032;-38
2022/04/20 03:02:38;;;;;;;5.43;2.10;;;10.40;74.70;;;;;;5096021;28;20028;-42
2022/04/20 03:05:04;;;;;;;2.85;2.38;;;10.50;74.70;;;;;;5084969;28;20047;-38
2022/04/20 03:07:30;;;;;;;4.65;2.45;;;10.40;74.70;;;;;;5095957;28;20028;-41
2022/04/20 03:09:55;;;;;;;3.50;2.47;;;10.40;74.60;;;;;;5085490;28;20357;-40
2022/04/20 03:12:21;;;;;;;3.17;2.35;;;10.40;74.70;;;;;;5092595;28;20031;-41
2022/04/20 03:14:47;;;;;;;3.33;2.65;;;10.40;74.80;;;;;;5088468;28;20035;-42
2022/04/20 03:17:12;;;;;;;3.45;2.60;;;10.40;74.80;;;;;;5090190;28;20020;-40
2022/04/20 03:19:38;;;;;;;2.85;2.17;;;10.40;74.90;;;;;;5098024;28;20123;-40
2022/04/20 03:22:03;;;;;;;2.95;2.58;;;10.30;75.00;;;;;;5101705;28;20386;-40
2022/04/20 03:24:29;;;;;;;3.45;2.70;;;10.30;75.00;;;;;;5094170;28;20069;-42
2022/04/20 03:26:55;;;;;;;3.35;2.70;;;10.30;75.00;;;;;;5102587;28;20020;-40
2022/04/20 03:29:20;;;;;;;5.20;2.33;;;10.30;75.10;;;;;;5093382;28;20115;-42
2022/04/20 03:31:46;;;;;;;3.13;2.75;;;10.20;75.10;;;;;;5102084;28;20024;-38
2022/04/20 03:34:13;;;;;;;3.55;2.38;;;10.20;75.10;;;;;;5092908;28;20539;-39
2022/04/20 03:36:38;;;;;;;3.65;2.65;;;10.20;75.20;;;;;;5104492;28;20041;-41
2022/04/20 03:39:04;;;;;;;2.55;2.00;;;10.20;75.30;;;;;;5092555;28;20027;-37
2022/04/20 03:41:30;;;;;;;3.75;2.63;;;10.20;75.40;;;;;;5108762;28;20134;-43
2022/04/20 03:43:55;;;;;;;2.97;1.85;;;10.10;75.40;;;;;;5096248;28;20481;-40
2022/04/20 03:46:22;;;;;;;2.63;2.17;;;10.10;75.50;;;;;;5108266;28;20747;-42
2022/04/20 03:48:47;;;;;;;3.25;2.63;;;10.10;75.60;;;;;;5097877;28;20038;-41
2022/04/20 03:51:13;;;;;;;4.38;2.80;;;10.10;75.70;;;;;;5106263;28;20043;-41
2022/04/20 03:53:38;;;;;;;3.40;2.30;;;10.00;76.00;;;;;;5100081;28;20020;-39
2022/04/20 03:56:04;;;;;;;3.53;2.67;;;10.00;76.00;;;;;;5104036;28;20040;-38
2022/04/20 03:58:30;;;;;;;2.90;2.28;;;9.90;76.10;;;;;;5102133;28;20024;-40
2022/04/20 04:00:55;;;;;;;3.08;2.78;;;9.90;76.20;;;;;;5100985;28;20043;-36
2022/04/20 04:03:21;;;;;;;7.32;3.75;;;9.80;76.40;;;;;;5105266;28;20084;-39
2022/04/20 04:05:46;;;;;;;4.32;2.70;;;9.80;76.70;;;;;;5097540;28;20027;-39
2022/04/20 04:08:12;;;;;;;3.00;2.30;;;9.80;76.90;;;;;;5106552;28;20054;-41
2022/04/20 04:10:38;;;;;;;3.08;2.40;;;9.70;76.90;;;;;;5097011;28;20028;-41
2022/04/20 04:13:03;;;;;;;3.92;2.63;;;9.70;77.00;;;;;;5106583;28;20020;-41
2022/04/20 04:15:29;;;;;;;2.80;2.58;;;9.70;77.00;;;;;;5095755;28;20031;-41
2022/04/20 04:17:58;;;;;;;4.57;2.40;;;9.60;77.00;;;;;;5108005;28;20475;-42
2022/04/20 04:20:26;;;;;;;3.83;2.30;;;9.60;77.10;;;;;;5104911;28;20390;-41
2022/04/20 04:22:51;;;;;;;3.30;2.17;;;9.60;77.10;;;;;;5108292;28;20035;-42
2022/04/20 04:25:17;;;;;;;3.72;2.45;;;9.60;77.30;;;;;;5097891;28;20036;-38
2022/04/20 04:27:43;;;;;;;4.40;2.50;;;9.50;77.20;;;;;;5086707;28;20210;-40
2022/04/20 04:30:09;;;;;;;2.65;2.45;;;9.50;77.70;;;;;;5098349;28;20039;-40
2022/04/20 04:32:34;;;;;;;2.75;2.38;;;9.50;77.50;;;;;;5089812;28;20058;-38
2022/04/20 04:35:03;;;;;;;3.33;2.50;;;9.50;77.70;;;;;;5094559;28;20024;-41
2022/04/20 04:37:39;;;;;;;2.92;2.40;;;9.50;77.70;;;;;;5091768;28;20496;-38
2022/04/20 04:40:05;;;;;;;2.78;2.33;;;9.50;77.70;;;;;;5094787;28;20028;-42
2022/04/20 04:42:31;;;;;;;2.83;2.20;;;9.50;77.60;;;;;;5091634;28;20024;-42
2022/04/20 04:48:36;;;;;;;2.65;2.45;;;9.50;77.70;;;;;;5091691;28;20413;-40
2022/04/20 04:50:29;;;;;;;2.63;2.40;;;9.50;77.60;;;;;;5094466;28;20112;-43
2022/04/20 04:52:54;;;;;;;6.25;2.42;;;9.40;77.60;;;;;;5092343;28;20130;-39
2022/04/20 04:55:20;;;;;;;3.47;2.50;;;9.40;77.70;;;;;;5090731;28;20550;-43
2022/04/20 04:57:45;;;;;;;3.65;2.55;;;9.40;77.70;;;;;;5094670;28;20085;-37
2022/04/20 05:00:11;;;;;;;4.07;2.42;;;9.50;77.80;;;;;;5088853;28;20456;-42
2022/04/20 05:02:37;;;;;;;4.60;3.10;;;9.50;77.80;;;;;;5096200;28;20039;-40
2022/04/20 05:05:04;;;;;;;4.65;2.90;;;9.50;77.90;;;;;;5088049;28;20433;-40
2022/04/20 05:07:29;;;;;;;3.53;2.50;;;9.40;77.80;;;;;;5097299;28;20035;-39
2022/04/20 05:09:55;;;;;;;2.45;2.22;;;9.50;77.90;;;;;;5086727;28;20028;-40
2022/04/20 05:12:20;;;;;;;2.70;2.40;;;9.50;78.00;;;;;;5098577;28;20020;-42
2022/04/20 05:14:46;;;;;;;4.65;2.75;;;9.50;78.00;;;;;;5086072;28;20047;-43
2022/04/20 05:17:11;;;;;;;2.65;2.20;;;9.40;78.00;;;;;;5098223;28;20054;-41
2022/04/20 05:19:37;;;;;;;2.40;2.20;;;9.50;78.10;;;;;;5091758;28;20044;-41
2022/04/20 05:22:02;;;;;;;2.80;2.30;;;9.50;78.10;;;;;;5093301;28;20862;-41
2022/04/20 05:24:28;;;;;;;3.85;2.40;;;9.50;78.20;;;;;;5103462;28;20040;-39
2022/04/20 05:26:54;;;;;;;2.42;2.22;;;9.50;78.20;;;;;;5096993;28;20051;-41
2022/04/20 05:29:19;;;;;;;3.88;2.17;;;9.50;78.20;;;;;;5102598;28;20446;-41
2022/04/20 05:31:46;;;;;;;2.20;2.00;;;9.50;78.20;;;;;;5098531;28;20682;-41
2022/04/20 05:34:11;;;;;;;3.03;2.22;;;9.50;78.20;;;;;;5100037;28;20020;-40
2022/04/20 05:42:09;;;;;;;3.47;2.58;;;9.60;78.20;;;;;;5099149;28;20059;-41
2022/04/20 05:44:35;;;;;;;5.60;2.63;;;9.70;78.10;;;;;;5099837;28;20069;-42
2022/04/20 05:47:00;;;;;;;3.22;2.22;;;9.70;78.00;;;;;;5102222;28;20032;-42
2022/04/20 05:49:26;;;;;;;3.97;2.10;;;9.70;78.00;;;;;;5097862;28;20552;-41
2022/04/20 05:51:55;;;;;;;2.33;2.13;;;9.70;77.90;;;;;;5104161;28;20629;-41
2022/04/20 05:54:20;;;;;;;3.40;2.40;;;9.70;77.90;;;;;;5095256;28;20035;-40
2022/04/20 05:56:46;;;;;;;3.05;2.38;;;9.80;77.90;;;;;;5104272;28;20047;-41
2022/04/20 05:59:11;;;;;;;4.38;2.25;;;9.80;77.90;;;;;;5094423;28;20028;-42
2022/04/20 06:01:37;;;;;;;2.85;2.47;;;9.80;77.80;;;;;;5105152;28;20034;-41
2022/04/20 06:04:02;;;;;;;2.97;2.42;;;9.90;77.70;;;;;;5093981;28;20023;-42
2022/04/20 06:06:28;;;;;;;2.25;1.85;;;9.90;77.60;;;;;;5105162;28;20149;-42
2022/04/20 06:08:53;;;;;;;3.40;2.40;;;10.00;77.50;;;;;;5093624;28;20034;-41
2022/04/20 06:11:19;;;;;;;2.15;1.95;;;10.00;77.50;;;;;;5106218;28;20027;-41
2022/04/20 06:13:44;;;;;;;5.35;2.88;;;10.00;77.40;;;;;;5101315;28;20027;-40
2022/04/20 06:16:10;;;;;;;2.85;2.40;;;10.10;77.40;;;;;;5086739;28;20089;-41
2022/04/20 06:18:36;;;;;;;2.35;2.10;;;10.10;77.20;;;;;;5093342;28;20030;-42
2022/04/20 06:21:02;;;;;;;3.25;2.50;;;10.10;77.00;;;;;;5104383;28;20039;-41
2022/04/20 06:23:28;;;;;;;3.15;2.38;;;10.20;76.90;;;;;;5099112;28;20467;-40
2022/04/20 06:25:55;;;;;;;9.38;3.95;;;10.20;76.80;;;;;;5099755;28;20038;-41
2022/04/20 06:28:23;;;;;;;2.85;2.42;;;10.30;76.80;;;;;;5100822;28;20024;-40
2022/04/20 06:30:49;;;;;;;3.05;2.58;;;10.30;76.60;;;;;;5097534;28;20043;-41
2022/04/20 06:33:14;;;;;;;2.80;2.50;;;10.40;76.50;;;;;;5103832;28;20376;-39
2022/04/20 06:35:40;;;;;;;2.72;2.33;;;10.40;76.20;;;;;;5094916;28;20031;-40
2022/04/20 06:38:05;;;;;;;5.70;2.35;;;10.50;76.20;;;;;;5103568;28;20023;-36
2022/04/20 06:40:31;;;;;;;2.80;2.20;;;10.50;76.10;;;;;;5093437;28;20035;-41
2022/04/20 06:42:56;;;;;;;3.70;2.00;;;10.60;76.10;;;;;;5105586;28;20044;-41
2022/04/20 06:45:23;;;;;;;3.63;2.20;;;10.60;76.00;;;;;;5092610;28;20068;-39
2022/04/20 06:47:48;;;;;;;3.38;2.58;;;10.70;75.90;;;;;;5105782;28;20028;-42
2022/04/20 06:50:14;;;;;;;3.45;2.00;;;10.70;75.70;;;;;;5092603;28;20032;-41
2022/04/20 07:00:52;;;;;;;2.65;1.98;;;10.90;75.50;;;;;;5092655;28;20410;-42
2022/04/20 07:03:17;;;;;;;3.88;2.40;;;10.90;75.30;;;;;;5105326;28;20666;-42
2022/04/20 07:05:42;;;;;;;2.28;2.00;;;11.00;75.10;;;;;;5092255;28;20165;-38
2022/04/20 07:08:08;;;;;;;3.70;2.17;;;11.00;75.10;;;;;;5104977;28;20024;-41
2022/04/20 07:10:34;;;;;;;2.78;1.98;;;11.00;74.90;;;;;;5093403;28;20545;-41
2022/04/20 07:12:59;;;;;;;3.03;2.28;;;11.10;74.90;;;;;;5102808;28;20023;-44
2022/04/20 07:15:25;;;;;;;4.70;2.60;;;11.10;74.60;;;;;;5096235;28;20543;-40
2022/04/20 07:17:53;;;;;;;4.85;2.83;;;11.20;74.70;;;;;;5101436;28;20094;-41
2022/04/20 07:20:19;;;;;;;2.63;1.83;;;11.20;74.60;;;;;;5098017;28;20047;-41
2022/04/20 07:22:48;;;;;;;2.95;2.15;;;11.30;74.70;;;;;;5097709;28;20020;-42
2022/04/20 07:25:15;;;;;;;2.30;1.80;;;11.30;74.80;;;;;;5101038;28;20023;-40
2022/04/20 07:27:41;;;;;;;1.85;1.63;;;11.40;74.80;;;;;;5096120;28;20028;-39
2022/04/20 07:30:07;;;;;;;2.53;1.73;;;11.40;74.80;;;;;;5102712;28;20317;-37
2022/04/20 07:32:32;;;;;;;2.70;1.90;;;11.50;75.00;;;;;;5092888;28;20048;-41
2022/04/20 07:34:58;;;;;;;2.45;1.73;;;11.50;75.40;;;;;;5104138;28;20028;-41
2022/04/20 07:37:23;;;;;;;2.70;2.08;;;11.60;75.20;;;;;;5091244;28;20085;-41
2022/04/20 07:39:49;;;;;;;2.45;2.08;;;11.60;75.30;;;;;;5104858;28;20036;-38
2022/04/20 07:42:14;;;;;;;1.85;1.75;;;11.70;75.40;;;;;;5094361;28;20016;-40
2022/04/20 07:44:40;;;;;;;2.85;1.90;;;11.80;75.60;;;;;;5083453;28;20750;-40
2022/04/20 07:47:05;;;;;;;2.58;1.80;;;11.80;75.60;;;;;;5097089;28;20135;-40
2022/04/20 07:52:19;;;;;;;3.03;1.92;;;11.90;75.60;;;;;;5096664;28;20046;-39
2022/04/20 07:54:45;;;;;;;4.53;2.80;;;12.00;75.60;;;;;;5084522;28;20039;-41
2022/04/20 07:57:14;;;;;;;2.65;2.40;;;12.00;76.10;;;;;;5094846;28;20391;-41
2022/04/20 07:59:39;;;;;;;2.88;2.00;;;12.10;75.10;;;;;;5084759;28;20036;-41
2022/04/20 08:02:06;;;;;;;2.92;1.92;;;12.10;74.90;;;;;;5094040;28;20026;-41
2022/04/20 08:04:31;;;;;;;2.70;2.05;;;12.20;75.00;;;;;;5086774;28;20032;-40
2022/04/20 08:06:57;;;;;;;2.03;1.70;;;12.20;75.00;;;;;;5091363;28;20376;-40
2022/04/20 08:09:24;;;;;;;5.82;2.20;;;12.30;75.00;;;;;;5090630;28;20115;-39
2022/04/20 08:11:50;;;;;;;2.10;1.60;;;12.40;74.90;;;;;;5087909;28;20028;-42
2022/04/20 08:14:15;;;;;;;2.20;2.00;;;12.40;74.80;;;;;;5093309;28;20098;-41
2022/04/20 08:16:43;;;;;;;4.15;2.20;;;12.50;75.10;;;;;;5085340;28;20501;-39
2022/04/20 08:19:10;;;;;;;3.15;1.90;;;12.50;75.10;;;;;;5095735;28;20040;-40
2022/04/20 08:21:36;;;;;;;3.20;1.60;;;12.60;73.90;;;;;;5071681;28;20093;-38
2022/04/20 08:24:02;;;;;;;3.97;1.70;;;12.70;73.70;;;;;;5099066;28;20026;-41
2022/04/20 08:26:28;;;;;;;1.75;1.60;;;12.80;74.10;;;;;;5090527;28;20339;-42
2022/04/20 08:28:53;;;;;;;1.65;1.55;;;12.90;74.60;;;;;;5101600;28;20517;-40
2022/04/20 08:31:19;;;;;;;2.25;1.58;;;12.90;73.50;;;;;;5088823;28;20373;-41
2022/04/20 08:33:44;;;;;;;2.40;1.65;;;13.10;73.50;;;;;;5099828;28;20557;-42
2022/04/20 08:36:12;;;;;;;2.60;1.60;;;13.10;73.60;;;;;;5087764;28;20036;-39
2022/04/20 08:38:38;;;;;;;2.03;1.73;;;13.20;73.60;;;;;;5099603;28;20709;-40
2022/04/20 08:41:04;;;;;;;1.70;1.60;;;13.30;73.00;;;;;;5087958;28;20036;-42
2022/04/20 08:43:31;;;;;;;2.95;1.75;;;13.40;72.10;;;;;;5096937;28;20032;-40
2022/04/20 08:46:00;;;;;;;2.67;1.50;;;13.50;72.20;;;;;;5089677;28;20066;-39
2022/04/20 08:48:25;;;;;;;2.95;1.35;;;13.50;71.60;;;;;;5094093;28;20057;-41
2022/04/20 08:50:53;;;;;;;1.98;1.58;;;13.50;71.50;;;;;;5093417;28;20475;-42
2022/04/20 08:53:20;;;;;;;1.50;1.40;;;13.60;71.40;;;;;;5092058;28;20801;-41
2022/04/20 08:55:46;;;;;;;3.80;1.65;;;13.60;71.00;;;;;;5094253;28;20051;-41
2022/04/20 08:58:12;;;;;;;2.15;1.85;;;13.70;71.00;;;;;;5090024;28;20032;-40
2022/04/20 09:00:38;;;;;;;2.22;1.60;;;13.70;70.70;;;;;;5097080;28;20558;-39
2022/04/20 09:03:04;;;;;;;1.90;1.70;;;13.80;70.90;;;;;;5087803;28;20023;-40
2022/04/20 09:05:33;;;;;;;2.22;1.83;;;13.80;70.80;;;;;;5098122;28;20035;-41
2022/04/20 09:08:06;;;;;;;2.95;1.70;;;13.80;70.00;;;;;;5088373;28;20089;-43
2022/04/20 09:10:32;;;;;;;3.25;2.10;;;13.90;69.90;;;;;;5098725;28;20028;-41
2022/04/20 09:13:07;;;;;;;2.40;2.00;;;13.90;69.20;;;;;;5087460;28;20085;-41
2022/04/20 09:15:35;;;;;;;2.75;2.00;;;13.90;69.10;;;;;;5093238;28;20201;-41
2022/04/20 09:18:03;;;;;;;4.03;1.83;;;13.90;69.20;;;;;;5087772;28;20024;-39
2022/04/20 09:20:32;;;;;;;3.03;1.80;;;13.90;69.50;;;;;;5092276;28;20048;-44
2022/04/20 09:23:09;;;;;;;4.15;2.17;;;14.00;69.90;;;;;;5086776;28;20043;-41
2022/04/20 09:25:37;;;;;;;2.03;1.80;;;14.00;70.00;;;;;;5099241;28;20597;-41
2022/04/20 09:28:04;;;;;;;2.88;1.90;;;14.10;69.80;;;;;;5087320;28;20024;-41
2022/04/20 09:30:35;;;;;;;3.55;2.20;;;14.20;69.70;;;;;;5097306;28;20542;-41
2022/04/20 09:33:06;;;;;;;3.38;1.73;;;14.20;69.50;;;;;;5086866;28;20464;-42
2022/04/20 09:35:40;;;;;;;1.90;1.70;;;14.20;68.60;;;;;;5097783;28;20459;-41
2022/04/20 09:38:07;;;;;;;2.20;1.75;;;14.20;69.30;;;;;;5065895;28;20020;-42
2022/04/20 09:40:35;;;;;;;1.60;1.25;;;14.30;69.60;;;;;;5091625;28;20467;-39
2022/04/20 09:43:08;;;;;;;2.90;1.50;;;14.40;70.00;;;;;;5088178;28;20458;-41
2022/04/20 09:45:36;;;;;;;2.00;1.60;;;14.40;70.00;;;;;;5095326;28;20084;-41
2022/04/20 09:51:34;;;;;;;1.98;1.60;;;14.60;70.10;;;;;;5097567;28;20512;-41
2022/04/20 09:54:00;;;;;;;2.53;1.70;;;14.60;69.70;;;;;;5033060;28;20545;-42
2022/04/20 09:56:27;;;;;;;1.90;1.58;;;14.70;69.80;;;;;;5096111;28;20093;-42
2022/04/20 09:59:04;;;;;;;2.17;1.40;;;14.70;69.90;;;;;;5085705;28;20480;-41
2022/04/20 10:01:35;;;;;;;1.80;1.50;;;14.80;69.80;;;;;;5098237;28;20047;-41
2022/04/20 10:04:04;;;;;;;1.85;1.63;;;14.80;69.50;;;;;;5065540;28;20419;-41
2022/04/20 10:06:30;;;;;;;2.78;1.52;;;14.90;69.30;;;;;;5092579;28;20450;-42
2022/04/20 10:08:56;;;;;;;2.95;1.83;;;14.90;69.00;;;;;;5087713;28;20432;-41
2022/04/20 10:11:23;;;;;;;3.25;1.90;;;14.90;69.30;;;;;;5094108;28;20084;-41
2022/04/20 10:16:39;;;;;;;2.20;1.65;;;14.90;69.40;;;;;;5095736;28;20118;-42
2022/04/20 10:19:08;;;;;;;3.70;1.63;;;15.00;69.30;;;;;;5088218;28;20020;-42
2022/04/20 10:21:42;;;;;;;1.70;1.40;;;15.10;69.20;;;;;;5096841;28;20089;-43
2022/04/20 10:24:15;;;;;;;2.53;2.03;;;15.10;69.20;;;;;;5102557;28;20034;-42
2022/04/20 10:26:44;;;;;;;2.83;1.70;;;15.10;68.90;;;;;;5097737;28;20127;-42
2022/04/20 10:29:19;;;;;;;2.95;1.50;;;15.20;68.80;;;;;;5101040;28;20110;-42
2022/04/20 10:31:53;;;;;;;3.50;2.13;;;15.20;68.30;;;;;;5099621;28;20024;-43
2022/04/20 10:34:19;;;;;;;2.15;1.50;;;15.20;68.30;;;;;;5099505;28;20395;-41
2022/04/20 10:36:58;;;;;;;1.90;1.70;;;15.30;68.40;;;;;;5101087;28;20016;-41
2022/04/20 10:39:26;;;;;;;2.08;1.90;;;15.30;68.40;;;;;;5098766;28;20035;-43
2022/04/20 10:42:11;;;;;;;2.67;1.83;;;15.40;68.50;;;;;;5101249;28;20039;-42
2022/04/20 10:44:55;;;;;;;2.97;1.63;;;15.40;68.00;;;;;;5099960;28;20049;-42
2022/04/20 10:47:35;;;;;;;2.45;1.60;;;15.40;67.80;;;;;;5097408;28;20024;-40
2022/04/20 10:50:09;;;;;;;2.95;2.00;;;15.50;68.20;;;;;;5102506;28;20043;-40
2022/04/20 10:52:36;;;;;;;1.40;1.30;;;15.50;68.30;;;;;;5098315;28;20046;-41
2022/04/20 10:55:04;;;;;;;1.50;1.40;;;15.60;68.40;;;;;;5098972;28;20089;-42
2022/04/20 10:57:41;;;;;;;2.78;1.50;;;15.60;68.50;;;;;;5099483;28;20075;-42
2022/04/20 11:00:27;;;;;;;2.15;1.70;;;15.60;68.50;;;;;;5100212;28;20051;-42
2022/04/20 11:03:03;;;;;;;2.50;1.50;;;15.70;68.70;;;;;;5099030;28;20028;-43
2022/04/20 11:05:28;;;;;;;3.03;1.48;;;15.70;68.40;;;;;;5101020;28;20028;-41
2022/04/20 11:08:11;;;;;;;1.95;1.70;;;15.80;67.90;;;;;;5099237;28;20030;-42
2022/04/20 11:10:43;;;;;;;2.22;1.80;;;15.80;68.10;;;;;;5100476;28;20039;-41
2022/04/20 11:19:12;;;;;;;1.65;1.55;;;15.90;68.80;;;;;;5094472;28;20335;-42
2022/04/20 11:21:53;;;;;;;2.10;1.50;;;16.00;68.20;;;;;;5102803;28;20489;-41
2022/04/20 11:24:29;;;;;;;3.28;1.60;;;16.00;67.70;;;;;;5092145;28;20044;-41
2022/04/20 11:26:55;;;;;;;2.33;1.58;;;16.00;67.80;;;;;;5105848;28;20054;-43
2022/04/20 11:29:22;;;;;;;3.58;1.83;;;16.10;67.70;;;;;;5092641;28;20073;-41
2022/04/20 11:32:20;;;;;;;1.83;1.45;;;16.10;67.50;;;;;;5104955;28;20058;-42
2022/04/20 11:34:45;;;;;;;1.38;1.27;;;16.20;67.60;;;;;;5071218;28;20391;-42
2022/04/20 11:37:11;;;;;;;1.95;1.50;;;16.20;67.50;;;;;;5104954;28;20028;-42
2022/04/20 11:39:39;;;;;;;3.67;1.50;;;16.20;67.70;;;;;;5092855;28;20069;-39
2022/04/20 11:42:06;;;;;;;1.40;1.30;;;16.30;67.70;;;;;;5104354;28;20387;-42
2022/04/20 11:44:39;;;;;;;3.03;1.52;;;16.30;67.50;;;;;;5094599;28;20028;-39
2022/04/20 11:47:05;;;;;;;;;;;16.40;67.40;;;;;;5103106;28;20554;-41
2022/04/20 11:49:36;;;;;;;1.55;1.42;;;16.40;67.40;;;;;;5096678;28;19915;-41
2022/04/20 11:52:06;;;;;;;2.03;1.73;;;16.50;67.60;;;;;;5101410;28;20023;-42
2022/04/20 11:54:33;;;;;;;2.30;1.65;;;16.50;67.40;;;;;;5097689;28;20044;-41
2022/04/20 11:56:58;;;;;;;3.30;1.73;;;16.50;67.20;;;;;;5097932;28;20130;-42
2022/04/20 11:59:28;;;;;;;3.28;1.90;;;16.50;67.00;;;;;;5100299;28;20165;-41
2022/04/20 12:01:57;;;;;;;2.17;1.73;;;16.50;67.10;;;;;;5101362;28;20028;-42
2022/04/20 12:04:29;;;;;;;2.20;1.80;;;16.50;67.30;;;;;;5106245;28;20019;-41
2022/04/20 12:06:57;;;;;;;2.30;1.63;;;16.60;67.60;;;;;;5099733;28;20035;-41
2022/04/20 12:09:25;;;;;;;2.75;1.67;;;16.60;67.50;;;;;;5107466;28;20029;-41
2022/04/20 12:11:56;;;;;;;2.10;1.52;;;16.70;67.60;;;;;;5096337;28;20028;-39
2022/04/20 12:14:23;;;;;;;3.47;2.10;;;16.70;67.60;;;;;;5107313;28;20038;-40
2022/04/20 12:16:51;;;;;;;2.42;1.90;;;16.80;67.70;;;;;;5097666;28;20062;-40
2022/04/20 12:19:16;;;;;;;1.88;1.70;;;16.80;67.10;;;;;;5106342;28;20020;-42
2022/04/20 12:21:44;;;;;;;1.90;1.60;;;16.80;67.10;;;;;;5096558;28;20058;-41
2022/04/20 12:24:25;;;;;;;2.17;1.60;;;16.90;67.90;;;;;;5108624;28;20020;-43
2022/04/20 12:26:52;;;;;;;1.95;1.40;;;16.90;67.30;;;;;;5095626;28;20023;-42
2022/04/20 12:29:21;;;;;;;3.15;1.77;;;16.90;67.40;;;;;;5108329;28;20059;-40
2022/04/20 12:31:49;;;;;;;1.85;1.50;;;17.00;67.40;;;;;;5094782;28;20710;-42
2022/04/20 12:34:19;;;;;;;1.90;1.70;;;17.00;67.20;;;;;;5108013;28;20820;-41
2022/04/20 12:36:59;;;;;;;2.10;1.70;;;17.10;66.50;;;;;;5095164;28;20495;-42
2022/04/20 12:39:42;;;;;;;1.42;1.33;;;17.10;66.60;;;;;;5107188;28;20034;-41
2022/04/20 12:42:12;;;;;;;1.67;1.58;;;17.10;66.80;;;;;;5096209;28;20028;-42
2022/04/20 12:44:54;;;;;;;2.78;1.73;;;17.10;66.80;;;;;;5108438;28;20062;-41
2022/04/20 12:47:22;;;;;;;2.20;2.00;;;17.10;66.00;;;;;;5094303;28;20065;-42
2022/04/20 12:49:52;;;;;;;2.45;2.00;;;17.20;66.00;;;;;;5107893;28;20027;-42
2022/04/20 12:52:22;;;;;;;2.20;1.60;;;17.10;65.80;;;;;;5095291;28;20179;-42
2022/04/20 12:55:06;;;;;;;2.30;1.92;;;17.10;66.20;;;;;;5107678;28;20118;-40
2022/04/20 13:03:05;;;;;;;2.70;1.73;;;17.20;66.30;;;;;;5094981;28;20571;-41
2022/04/20 13:05:35;;;;;;;3.40;1.60;;;17.20;66.60;;;;;;5107153;28;20046;-44
2022/04/20 13:08:01;;;;;;;3.20;1.50;;;17.20;66.90;;;;;;5094157;28;20107;-42
2022/04/20 13:10:29;;;;;;;4.80;1.45;;;17.30;66.70;;;;;;5105707;28;20601;-42
2022/04/20 13:12:56;;;;;;;1.92;1.63;;;17.30;67.20;;;;;;5093497;28;20661;-40
2022/04/20 13:15:24;;;;;;;1.38;1.27;;;17.40;67.60;;;;;;5106697;28;20514;-43
2022/04/20 13:17:53;;;;;;;1.67;1.58;;;17.40;67.60;;;;;;5096472;28;20486;-43
2022/04/20 13:20:21;;;;;;;2.35;1.50;;;17.50;67.80;;;;;;5099729;28;20036;-42
2022/04/20 13:22:46;;;;;;;1.92;1.60;;;17.60;67.80;;;;;;5095436;28;20032;-41
2022/04/20 13:27:56;;;;;;;3.55;1.70;;;17.60;66.90;;;;;;5094536;28;20133;-42
2022/04/20 13:30:22;;;;;;;1.60;1.50;;;17.60;66.60;;;;;;5088498;28;20111;-43
2022/04/20 13:32:48;;;;;;;2.13;1.42;;;17.70;66.90;;;;;;5091642;28;20031;-42